Time;durP1;ratioP1;P1;durP2;ratioP2;P2;SDS_P1;SDS_P2;PMS_P1;PMS_P2;Temp;Humidity;BMP_temperature;BMP_pressure;BME280_temperature;BME280_humidity;BME280_pressure;Samples;Min_cycle;Max_cycle;Signal;HPM_P1;HPM_P2
2021/12/22 00:03:55;;;;;;;52.87;22.60;;;;;;;-4.11;100.00;101674.59;3688139;78;99663;-87
2021/12/22 00:08:57;;;;;;;52.10;20.20;;;;;;;-4.05;100.00;101680.86;3672236;78;99472;-88
2021/12/22 00:13:58;;;;;;;44.23;18.47;;;;;;;-4.04;100.00;101677.89;3675131;78;98966;-88
2021/12/22 00:18:59;;;;;;;41.30;16.87;;;;;;;-4.02;100.00;101689.75;3678030;78;99611;-87
2021/12/22 00:24:00;;;;;;;42.40;18.07;;;;;;;-4.02;100.00;101686.55;3693390;78;99736;-87
2021/12/22 00:29:01;;;;;;;45.28;18.85;;;;;;;-4.00;100.00;101688.44;3681254;77;99512;-87
2021/12/22 00:34:01;;;;;;;48.80;19.67;;;;;;;-3.97;100.00;101691.98;3689866;78;98673;-88
2021/12/22 00:39:02;;;;;;;50.23;18.97;;;;;;;-3.96;100.00;101700.84;3700041;78;99349;-88
2021/12/22 00:44:04;;;;;;;55.67;20.73;;;;;;;-3.93;100.00;101707.08;3670307;79;99426;-87
2021/12/22 00:49:05;;;;;;;54.10;21.50;;;;;;;-3.93;100.00;101699.02;3700515;78;99875;-87
2021/12/22 00:54:06;;;;;;;54.40;21.80;;;;;;;-3.91;100.00;101700.91;3708013;77;99631;-87
2021/12/22 00:59:07;;;;;;;50.90;20.97;;;;;;;-3.90;100.00;101695.80;3615225;80;99776;-87
2021/12/22 01:04:08;;;;;;;52.73;22.37;;;;;;;-3.88;100.00;101696.39;3703131;78;98626;-87
2021/12/22 01:09:08;;;;;;;53.67;21.70;;;;;;;-3.91;100.00;101707.11;3710821;78;99457;-86
2021/12/22 01:14:10;;;;;;;48.70;18.33;;;;;;;-3.92;100.00;101711.39;3718391;78;32535;-87
2021/12/22 01:19:14;;;;;;;40.70;16.43;;;;;;;-3.92;100.00;101727.52;3687763;77;99239;-87
2021/12/22 01:24:22;;;;;;;34.50;14.20;;;;;;;-3.92;100.00;101724.84;3626221;80;99429;-86
2021/12/22 01:29:19;;;;;;;36.55;15.48;;;;;;;-3.92;100.00;101718.94;3668987;77;99403;-86
2021/12/22 01:34:20;;;;;;;50.23;17.80;;;;;;;-3.91;100.00;101718.39;3677734;78;99764;-87
2021/12/22 01:39:21;;;;;;;46.00;18.73;;;;;;;-3.90;100.00;101710.08;3660852;78;99368;-87
2021/12/22 01:45:00;;;;;;;38.88;16.37;;;;;;;-3.89;100.00;101708.19;3706324;77;32560;-86
2021/12/22 01:49:52;;;;;;;45.00;16.87;;;;;;;-3.93;100.00;101705.73;3630182;79;99589;-86
2021/12/22 01:55:07;;;;;;;43.40;19.17;;;;;;;-3.98;100.00;101701.09;3598941;80;99814;-87
2021/12/22 02:00:08;;;;;;;39.83;16.93;;;;;;;-3.98;100.00;101698.41;3683035;78;101477;-87
2021/12/22 02:05:10;;;;;;;38.13;17.67;;;;;;;-4.04;100.00;101694.58;3639609;79;100051;-87
2021/12/22 02:10:31;;;;;;;47.90;17.43;;;;;;;-4.06;100.00;101691.31;3670461;78;99562;-87
2021/12/22 02:15:14;;;;;;;39.70;15.50;;;;;;;-4.12;100.00;101695.83;3576270;80;99729;-87
2021/12/22 02:20:15;;;;;;;34.60;15.50;;;;;;;-4.20;100.00;101707.54;3658965;78;98971;-87
2021/12/22 02:25:20;;;;;;;40.83;15.33;;;;;;;-4.26;99.99;101700.48;3667346;78;99639;-86
2021/12/22 02:30:25;;;;;;;36.85;14.80;;;;;;;-4.30;100.00;101710.09;3675730;78;99193;-87
2021/12/22 02:35:42;;;;;;;41.17;15.83;;;;;;;-4.40;99.83;101705.39;3688628;78;99879;-86
2021/12/22 02:40:46;;;;;;;38.00;14.93;;;;;;;-4.51;99.44;101713.54;3673014;78;99291;-87
2021/12/22 02:45:48;;;;;;;33.73;14.03;;;;;;;-4.65;99.56;101702.33;3670394;79;99210;-85
2021/12/22 02:50:52;;;;;;;43.43;16.50;;;;;;;-4.68;99.49;101716.27;3653574;79;99140;-86
2021/12/22 02:56:05;;;;;;;41.07;15.53;;;;;;;-4.73;99.72;101724.76;3628165;79;99585;-86
2021/12/22 03:06:09;;;;;;;40.83;16.77;;;;;;;-4.84;99.56;101718.42;3655644;78;99894;-87
2021/12/22 03:11:09;;;;;;;34.88;15.95;;;;;;;-4.93;99.48;101721.22;3634633;80;99644;-87
2021/12/22 03:16:10;;;;;;;39.30;14.87;;;;;;;-5.00;99.42;101716.55;3624523;78;99691;-87
2021/12/22 03:21:21;;;;;;;37.47;15.40;;;;;;;-5.06;99.27;101718.88;3628250;79;99719;-86
2021/12/22 03:26:16;;;;;;;40.80;17.37;;;;;;;-5.08;99.69;101720.17;3639387;79;26152;-87
2021/12/22 03:31:17;;;;;;;43.38;17.80;;;;;;;-5.11;99.61;101717.95;3630957;79;98898;-86
2021/12/22 03:36:18;;;;;;;39.73;16.97;;;;;;;-5.20;99.26;101722.91;3623409;79;99110;-87
2021/12/22 03:41:19;;;;;;;42.23;16.07;;;;;;;-5.25;99.44;101716.11;3651584;78;99721;-87
2021/12/22 03:46:20;;;;;;;42.93;17.27;;;;;;;-5.27;99.61;101719.57;3678505;78;99692;-86
2021/12/22 03:51:21;;;;;;;43.83;17.17;;;;;;;-5.24;100.00;101729.80;3677214;78;99598;-86
2021/12/22 03:56:22;;;;;;;40.50;18.13;;;;;;;-5.20;100.00;101728.79;3684960;78;32489;-86
2021/12/22 04:01:23;;;;;;;46.00;19.97;;;;;;;-5.17;100.00;101726.46;3679352;78;98877;-86
2021/12/22 04:06:24;;;;;;;50.30;20.17;;;;;;;-5.14;100.00;101722.48;3675692;78;99393;-84
2021/12/22 04:11:24;;;;;;;43.50;18.35;;;;;;;-5.08;100.00;101726.88;3667472;78;99813;-86
2021/12/22 04:16:26;;;;;;;51.87;20.17;;;;;;;-5.02;100.00;101728.59;3678392;78;99455;-86
2021/12/22 04:21:27;;;;;;;50.50;18.67;;;;;;;-4.96;100.00;101731.64;3623367;79;99203;-86
2021/12/22 04:26:31;;;;;;;45.44;19.40;;;;;;;-4.94;100.00;101736.23;3693854;78;32449;-86
2021/12/22 04:31:31;;;;;;;46.65;20.10;;;;;;;-4.91;100.00;101735.20;3687449;78;99201;-86
2021/12/22 04:36:32;;;;;;;53.20;21.10;;;;;;;-4.84;100.00;101728.34;3696963;78;99310;-85
2021/12/22 04:41:33;;;;;;;49.33;20.50;;;;;;;-4.79;100.00;101735.97;3662822;78;99406;-86
2021/12/22 04:46:34;;;;;;;42.17;17.93;;;;;;;-4.72;100.00;101730.41;3630486;79;99891;-85
2021/12/22 04:51:36;;;;;;;47.60;18.50;;;;;;;-4.63;100.00;101732.42;3571038;80;99970;-85
2021/12/22 04:56:39;;;;;;;50.20;21.03;;;;;;;-4.55;100.00;101729.86;3645214;79;26032;-85
2021/12/22 05:01:40;;;;;;;48.87;17.03;;;;;;;-4.47;100.00;101726.22;3645630;79;99830;-86
2021/12/22 05:06:41;;;;;;;47.73;16.67;;;;;;;-4.39;100.00;101731.72;3646165;79;98466;-86
2021/12/22 05:11:41;;;;;;;54.33;20.90;;;;;;;-4.33;100.00;101730.72;3638003;79;99443;-86
2021/12/22 05:16:48;;;;;;;54.80;22.47;;;;;;;-4.27;100.00;101727.87;3650610;79;99390;-85
2021/12/22 05:21:48;;;;;;;61.68;24.63;;;;;;;-4.20;100.00;101735.77;3639292;79;99348;-85
2021/12/22 05:26:50;;;;;;;61.80;26.53;;;;;;;-4.16;100.00;101722.12;3644102;79;26403;-85
2021/12/22 05:31:54;;;;;;;58.80;25.17;;;;;;;-4.11;100.00;101720.30;3644568;79;99584;-85
2021/12/22 05:36:55;;;;;;;61.50;23.27;;;;;;;-4.05;100.00;101730.59;3610301;80;99378;-86
2021/12/22 05:41:57;;;;;;;57.73;22.42;;;;;;;-3.99;100.00;101740.34;3542808;81;100047;-85
2021/12/22 05:46:58;;;;;;;66.53;26.12;;;;;;;-3.93;100.00;101739.34;3580931;78;99936;-85
2021/12/22 05:51:59;;;;;;;66.17;24.43;;;;;;;-3.88;100.00;101745.59;3666281;78;99407;-86
2021/12/22 05:57:00;;;;;;;64.60;24.77;;;;;;;-3.78;100.00;101743.58;3654172;79;25806;-84
2021/12/22 06:02:01;;;;;;;77.63;29.00;;;;;;;-3.70;100.00;101753.37;3685654;77;99080;-86
2021/12/22 06:07:03;;;;;;;81.67;30.63;;;;;;;-3.60;100.00;101762.88;3692908;78;99559;-85
2021/12/22 06:12:04;;;;;;;70.23;24.83;;;;;;;-3.51;100.00;101750.61;3657477;78;99428;-85
2021/12/22 06:17:05;;;;;;;75.03;27.30;;;;;;;-3.41;100.00;101761.49;3721018;78;99394;-85
2021/12/22 06:22:06;;;;;;;73.50;27.02;;;;;;;-3.33;100.00;101762.37;3715309;78;99072;-86
2021/12/22 06:27:07;;;;;;;71.07;25.30;;;;;;;-3.25;100.00;101763.28;3726800;78;26374;-85
2021/12/22 06:32:09;;;;;;;66.70;24.90;;;;;;;-3.17;100.00;101770.09;3696776;78;99881;-85
2021/12/22 06:37:12;;;;;;;63.20;24.80;;;;;;;-3.09;100.00;101762.37;3688277;78;99619;-86
2021/12/22 06:42:13;;;;;;;64.97;21.70;;;;;;;-3.03;100.00;101764.05;3680913;78;99383;-86
2021/12/22 06:47:14;;;;;;;57.20;23.37;;;;;;;-2.97;100.00;101772.97;3722826;78;99823;-85
2021/12/22 06:52:15;;;;;;;54.43;20.83;;;;;;;-2.92;100.00;101781.09;3656256;79;99622;-86
2021/12/22 06:57:19;;;;;;;51.87;19.57;;;;;;;-2.89;100.00;101796.21;3749677;76;99954;-86
2021/12/22 07:02:18;;;;;;;46.87;18.83;;;;;;;-2.86;100.00;101796.23;3642130;79;99309;-86
2021/12/22 07:07:19;;;;;;;52.30;21.30;;;;;;;-2.83;100.00;101811.38;3715328;78;99552;-86
2021/12/22 07:12:20;;;;;;;55.83;21.90;;;;;;;-2.77;100.00;101822.48;3665116;78;99812;-86
2021/12/22 07:17:21;;;;;;;51.67;19.97;;;;;;;-2.77;100.00;101822.48;3664801;79;100083;-85
2021/12/22 07:22:22;;;;;;;38.87;18.20;;;;;;;-2.73;100.00;101820.09;3718810;78;99926;-85
2021/12/22 07:27:23;;;;;;;48.50;18.87;;;;;;;-2.69;100.00;101815.82;3716394;77;99869;-85
2021/12/22 07:32:24;;;;;;;40.27;17.37;;;;;;;-2.67;100.00;101822.55;3723862;78;99112;-86
2021/12/22 07:37:48;;;;;;;41.03;17.53;;;;;;;-2.67;100.00;101827.14;3745562;78;99712;-86
2021/12/22 07:42:49;;;;;;;38.97;15.57;;;;;;;-2.63;100.00;101834.45;3696984;78;99385;-87
2021/12/22 07:47:50;;;;;;;39.57;16.00;;;;;;;-2.60;100.00;101834.47;3728610;78;99957;-86
2021/12/22 07:52:51;;;;;;;38.47;15.07;;;;;;;-2.57;100.00;101830.73;3712194;77;99504;-87
2021/12/22 07:57:52;;;;;;;36.77;15.67;;;;;;;-2.52;100.00;101840.20;3691528;78;99718;-86
2021/12/22 08:02:53;;;;;;;42.00;17.70;;;;;;;-2.49;100.00;101836.19;3700822;79;26177;-87
2021/12/22 08:07:56;;;;;;;45.73;18.23;;;;;;;-2.46;100.00;101830.30;3658517;79;99602;-87
2021/12/22 08:12:57;;;;;;;53.13;24.00;;;;;;;-2.41;100.00;101833.04;3693873;77;99089;-87
2021/12/22 08:17:59;;;;;;;41.53;17.50;;;;;;;-2.39;100.00;101830.89;3681350;77;99323;-87
2021/12/22 08:23:00;;;;;;;47.70;20.07;;;;;;;-2.36;100.00;101841.97;3684593;79;99414;-87
2021/12/22 08:28:06;;;;;;;44.40;17.97;;;;;;;-2.31;100.00;101829.87;3688894;77;99445;-87
2021/12/22 08:33:15;;;;;;;47.33;19.20;;;;;;;-2.33;100.00;101805.06;3696919;79;27308;-87
2021/12/22 08:43:32;;;;;;;40.03;18.07;;;;;;;-2.13;100.00;101837.55;3708255;78;99268;-86
2021/12/22 08:48:33;;;;;;;38.07;16.07;;;;;;;-2.04;100.00;101827.91;3642373;78;99537;-86
2021/12/22 08:53:35;;;;;;;37.43;16.97;;;;;;;-1.92;100.00;101830.43;3669225;79;99324;-87
2021/12/22 08:58:36;;;;;;;36.80;15.23;;;;;;;-1.89;100.00;101827.20;3673461;77;99343;-86
2021/12/22 09:03:37;;;;;;;39.73;17.60;;;;;;;-1.87;100.00;101825.86;3715221;77;99376;-87
2021/12/22 09:08:41;;;;;;;35.88;17.55;;;;;;;-1.85;100.00;101826.95;3701951;78;99040;-87
2021/12/22 09:13:42;;;;;;;35.00;15.10;;;;;;;-1.82;100.00;101829.94;3716529;78;99143;-87
2021/12/22 09:18:44;;;;;;;33.48;15.13;;;;;;;-1.73;100.00;101814.89;3712767;78;99257;-85
2021/12/22 09:23:46;;;;;;;32.40;15.30;;;;;;;-1.73;100.00;101814.89;3726308;78;99451;-86
2021/12/22 09:28:47;;;;;;;31.48;14.65;;;;;;;-1.58;100.00;101819.55;3717587;78;100139;-87
2021/12/22 09:33:49;;;;;;;34.80;16.20;;;;;;;-1.50;100.00;101813.63;3726841;78;99461;-86
2021/12/22 09:38:50;;;;;;;30.93;14.97;;;;;;;-1.41;100.00;101816.11;3725656;77;99359;-87
2021/12/22 09:43:53;;;;;;;33.23;15.37;;;;;;;-1.33;100.00;101824.51;3722945;78;99554;-87
2021/12/22 09:49:07;;;;;;;31.37;13.10;;;;;;;-1.26;100.00;101820.22;3711360;77;99436;-86
2021/12/22 09:54:05;;;;;;;26.87;11.70;;;;;;;-1.25;100.00;101809.69;3720077;78;99425;-85
2021/12/22 09:59:06;;;;;;;31.35;14.75;;;;;;;-1.18;100.00;101806.19;3705581;78;99749;-86
2021/12/22 10:04:09;;;;;;;34.30;15.93;;;;;;;-1.10;100.00;101806.48;3709650;78;99687;-86
2021/12/22 10:09:10;;;;;;;37.07;17.40;;;;;;;-1.02;100.00;101806.50;3608362;79;99444;-85
2021/12/22 10:14:21;;;;;;;30.93;12.73;;;;;;;-0.99;100.00;101807.33;3651952;78;99437;-86
2021/12/22 10:19:27;;;;;;;44.25;18.07;;;;;;;-1.00;100.00;101794.35;3617225;79;99637;-86
2021/12/22 10:24:43;;;;;;;31.87;14.90;;;;;;;-0.99;100.00;101781.66;3613230;78;99764;-86
2021/12/22 10:29:44;;;;;;;33.83;16.23;;;;;;;-0.97;100.00;101791.66;3620726;80;100248;-86
2021/12/22 10:34:59;;;;;;;41.47;18.43;;;;;;;-0.87;100.00;101791.67;3635414;80;99532;-86
2021/12/22 10:40:00;;;;;;;37.03;17.03;;;;;;;-0.82;100.00;101785.72;3579141;80;99762;-86
2021/12/22 10:45:59;;;;;;;30.97;14.23;;;;;;;-0.79;99.72;101793.30;3645777;80;26561;-84
2021/12/22 10:50:24;;;;;;;25.73;13.40;;;;;;;-0.75;99.72;101793.58;3572358;80;99286;-85
2021/12/22 10:55:25;;;;;;;25.37;12.50;;;;;;;-0.74;98.86;101791.14;3605963;79;99028;-85
2021/12/22 11:00:28;;;;;;;33.87;15.07;;;;;;;-0.77;98.47;101780.88;3615864;80;99248;-85
2021/12/22 11:05:30;;;;;;;25.40;12.10;;;;;;;-0.74;98.94;101772.22;3692451;77;99550;-85
2021/12/22 11:10:31;;;;;;;27.02;12.37;;;;;;;-0.74;97.91;101768.16;3731127;77;98992;-85
2021/12/22 11:15:43;;;;;;;23.03;11.90;;;;;;;-0.74;97.91;101768.16;3722207;78;26251;-85
2021/12/22 11:20:46;;;;;;;26.75;13.05;;;;;;;-0.70;97.52;101765.20;3627378;80;99187;-85
2021/12/22 11:25:47;;;;;;;28.20;12.88;;;;;;;-0.67;97.50;101759.27;3648838;80;99364;-86
2021/12/22 11:30:48;;;;;;;25.83;12.87;;;;;;;-0.62;97.12;101755.22;3691876;78;98801;-86
2021/12/22 11:35:52;;;;;;;30.27;14.57;;;;;;;-0.64;96.80;101747.36;3695755;76;99426;-86
2021/12/22 11:40:57;;;;;;;31.80;13.70;;;;;;;-0.58;97.14;101745.45;3646752;79;99235;-86
2021/12/22 11:45:57;;;;;;;35.92;15.40;;;;;;;-0.56;96.64;101735.20;3679127;78;99549;-86
2021/12/22 11:50:58;;;;;;;28.43;13.50;;;;;;;-0.56;96.03;101739.26;3566714;80;98648;-86
2021/12/22 11:56:00;;;;;;;29.73;15.17;;;;;;;-0.57;95.80;101735.73;3632152;80;99030;-86
2021/12/22 12:01:09;;;;;;;27.30;12.40;;;;;;;-0.58;95.44;101730.59;3614941;79;99073;-86
2021/12/22 12:06:17;;;;;;;27.97;13.90;;;;;;;-0.58;95.86;101738.70;3625894;79;99469;-86
2021/12/22 12:11:28;;;;;;;29.10;14.85;;;;;;;-0.57;95.37;101728.97;3609061;80;99005;-86
2021/12/22 12:22:11;;;;;;;25.23;13.40;;;;;;;-0.55;94.77;101718.68;3713851;78;99482;-85
2021/12/22 12:27:51;;;;;;;27.17;14.27;;;;;;;-0.49;94.51;101710.04;3749401;77;26549;-85
2021/12/22 12:32:56;;;;;;;32.73;14.93;;;;;;;-0.50;94.37;101714.63;3744652;77;98700;-83
2021/12/22 12:38:16;;;;;;;34.80;15.33;;;;;;;-0.50;94.15;101714.63;3737662;76;99055;-83
2021/12/22 12:43:17;;;;;;;35.60;16.10;;;;;;;-0.51;94.19;101710.86;3746071;77;99352;-86
2021/12/22 12:48:27;;;;;;;39.70;17.77;;;;;;;-0.48;94.60;101703.54;3729903;77;99062;-86
2021/12/22 12:53:30;;;;;;;32.67;16.23;;;;;;;-0.48;94.12;101707.06;3740529;77;99061;-82
2021/12/22 12:58:31;;;;;;;34.40;17.57;;;;;;;-0.47;94.15;101706.77;3722827;77;99165;-86
2021/12/22 13:03:48;;;;;;;32.07;15.83;;;;;;;-0.50;93.74;101707.07;3732436;78;25915;-87
2021/12/22 13:08:49;;;;;;;33.70;16.83;;;;;;;-0.54;93.47;101704.10;3725466;77;99208;-86
2021/12/22 13:18:54;;;;;;;31.63;17.50;;;;;;;-0.59;93.30;101701.94;3677653;78;99173;-86
2021/12/22 13:23:55;;;;;;;31.67;16.60;;;;;;;-0.59;93.08;101705.98;3714297;78;99075;-86
2021/12/22 13:28:56;;;;;;;36.93;16.70;;;;;;;-0.62;93.39;101704.64;3711278;77;99291;-86
2021/12/22 13:34:02;;;;;;;39.20;20.53;;;;;;;-0.63;93.28;101707.08;3720761;77;99109;-87
2021/12/22 13:39:05;;;;;;;40.13;21.33;;;;;;;-0.65;93.45;101700.32;3728291;78;98842;-86
2021/12/22 13:44:06;;;;;;;37.37;18.90;;;;;;;-0.68;93.71;101707.61;3710324;78;99387;-86
2021/12/22 13:49:15;;;;;;;32.85;16.55;;;;;;;-0.67;93.78;101706.55;3715536;78;99450;-86
2021/12/22 13:54:23;;;;;;;36.23;18.63;;;;;;;-0.70;93.90;101696.27;3682757;78;99599;-86
2021/12/22 13:59:28;;;;;;;36.30;17.83;;;;;;;-0.70;94.09;101696.27;3582843;79;99160;-87
2021/12/22 14:04:36;;;;;;;41.37;19.67;;;;;;;-0.72;94.18;101699.23;3655437;78;99534;-86
2021/12/22 14:09:52;;;;;;;37.05;18.90;;;;;;;-0.73;94.25;101699.53;3624543;78;99477;-85
2021/12/22 14:14:53;;;;;;;37.27;19.23;;;;;;;-0.72;94.51;101688.98;3675667;78;99303;-86
2021/12/22 14:20:05;;;;;;;44.38;20.52;;;;;;;-0.74;94.42;101685.19;3559473;80;99225;-87
2021/12/22 14:25:17;;;;;;;52.20;24.57;;;;;;;-0.76;94.48;101681.96;3657022;79;99222;-86
2021/12/22 14:30:36;;;;;;;46.03;21.03;;;;;;;-0.76;94.73;101684.66;3663326;79;99339;-86
2021/12/22 14:35:44;;;;;;;44.13;22.37;;;;;;;-0.77;94.80;101687.63;3658483;79;99880;-86
2021/12/22 14:40:58;;;;;;;40.17;20.30;;;;;;;-0.81;94.71;101681.96;3651453;79;99648;-82
2021/12/22 14:45:59;;;;;;;46.80;22.17;;;;;;;-0.82;95.00;101689.78;3636555;78;99852;-83
2021/12/22 14:51:11;;;;;;;46.40;22.90;;;;;;;-0.82;95.06;101687.63;3696601;78;98794;-82
2021/12/22 14:56:20;;;;;;;43.40;22.80;;;;;;;-0.83;95.08;101681.96;3731284;78;99074;-83
2021/12/22 15:01:24;;;;;;;40.80;20.62;;;;;;;-0.83;94.84;101688.72;3725666;78;99089;-84
2021/12/22 15:06:29;;;;;;;42.88;20.70;;;;;;;-0.86;94.94;101678.44;3745619;78;99806;-83
2021/12/22 15:11:30;;;;;;;44.80;20.87;;;;;;;-0.88;95.09;101674.64;3739556;77;99930;-83
2021/12/22 15:16:32;;;;;;;48.47;23.63;;;;;;;-0.86;95.10;101678.44;3735805;78;100183;-85
2021/12/22 15:21:33;;;;;;;47.47;22.67;;;;;;;-0.88;95.15;101669.80;3720027;78;98837;-84
2021/12/22 15:26:37;;;;;;;42.13;20.70;;;;;;;-0.89;95.27;101666.84;3734465;78;99593;-84
2021/12/22 15:31:39;;;;;;;47.40;24.23;;;;;;;-0.91;95.33;101660.87;3729134;76;98994;-83
2021/12/22 15:36:40;;;;;;;41.97;20.37;;;;;;;-0.91;95.42;101668.45;3742932;77;99740;-83
2021/12/22 15:41:41;;;;;;;42.30;20.93;;;;;;;-0.94;95.48;101664.13;3736768;78;99846;-83
2021/12/22 15:46:42;;;;;;;47.87;21.20;;;;;;;-0.94;95.65;101666.84;3721339;76;99134;-83
2021/12/22 15:51:43;;;;;;;44.80;20.93;;;;;;;-0.95;95.69;101670.06;3743168;77;98632;-83
2021/12/22 15:56:44;;;;;;;39.27;19.07;;;;;;;-0.97;95.76;101661.43;3733983;77;98943;-83
2021/12/22 16:01:45;;;;;;;43.90;21.20;;;;;;;-0.98;95.74;101658.47;3735788;77;99421;-83
2021/12/22 16:06:46;;;;;;;42.90;22.10;;;;;;;-1.00;95.82;101651.16;3745106;78;99666;-83
2021/12/22 16:11:47;;;;;;;42.08;20.48;;;;;;;-1.00;95.85;101649.01;3732259;77;99213;-83
2021/12/22 16:16:48;;;;;;;41.83;21.17;;;;;;;-1.01;95.88;101636.03;3731784;77;100241;-84
2021/12/22 16:21:49;;;;;;;44.93;22.97;;;;;;;-1.04;95.98;101625.75;3717435;77;99161;-84
2021/12/22 16:26:51;;;;;;;49.57;23.53;;;;;;;-1.04;96.02;101627.09;3660670;79;99316;-83
2021/12/22 16:31:52;;;;;;;54.53;25.05;;;;;;;-1.05;96.07;101628.19;3687371;77;99533;-83
2021/12/22 16:36:53;;;;;;;53.17;25.10;;;;;;;-1.05;96.08;101625.48;3684651;79;99524;-82
2021/12/22 16:41:58;;;;;;;50.90;23.53;;;;;;;-1.08;96.12;101620.64;3686822;78;99548;-84
2021/12/22 16:46:59;;;;;;;51.30;24.90;;;;;;;-1.08;96.23;101615.23;3695356;77;99152;-83
2021/12/22 16:52:00;;;;;;;53.10;26.10;;;;;;;-1.09;96.21;101608.19;3697212;78;99218;-83
2021/12/22 16:57:01;;;;;;;55.70;25.70;;;;;;;-1.11;96.28;101604.96;3708575;77;33114;-84
2021/12/22 17:02:03;;;;;;;49.53;23.60;;;;;;;-1.11;96.31;101602.82;3607234;80;98988;-81
2021/12/22 17:07:05;;;;;;;54.53;26.23;;;;;;;-1.12;96.35;101600.64;3607041;80;99391;-84
2021/12/22 17:12:08;;;;;;;55.17;26.73;;;;;;;-1.14;96.32;101598.77;3602597;80;99233;-86
2021/12/22 17:17:16;;;;;;;50.27;25.90;;;;;;;-1.16;96.30;101595.50;3602284;80;100001;-86
2021/12/22 17:22:12;;;;;;;46.40;23.60;;;;;;;-1.19;96.38;101589.84;3585959;80;99386;-86
2021/12/22 17:27:13;;;;;;;51.73;24.03;;;;;;;-1.22;96.41;101589.84;3572812;80;34088;-86
2021/12/22 17:32:16;;;;;;;55.93;26.30;;;;;;;-1.25;96.37;101587.70;3682667;77;99036;-86
2021/12/22 17:37:17;;;;;;;52.47;23.13;;;;;;;-1.25;96.37;101575.55;3696379;78;99025;-87
2021/12/22 17:42:18;;;;;;;44.63;23.03;;;;;;;-1.27;96.40;101580.95;3684922;78;99605;-86
2021/12/22 17:47:19;;;;;;;45.63;24.50;;;;;;;-1.47;96.33;101553.41;3692950;78;99587;-86
2021/12/22 17:52:20;;;;;;;53.13;24.50;;;;;;;-1.47;96.33;101553.41;3675833;78;99574;-86
2021/12/22 17:57:23;;;;;;;54.07;25.80;;;;;;;-1.37;96.53;101574.20;3676742;77;32830;-85
2021/12/22 18:02:24;;;;;;;48.97;25.17;;;;;;;-1.42;96.55;101572.84;3647195;78;99323;-85
2021/12/22 18:07:25;;;;;;;49.87;23.40;;;;;;;-1.44;96.59;101569.58;3673078;78;99586;-86
2021/12/22 18:12:26;;;;;;;46.60;22.37;;;;;;;-1.46;96.64;101566.36;3669608;78;99506;-85
2021/12/22 18:17:28;;;;;;;49.33;22.57;;;;;;;-1.51;96.63;101560.95;3705982;78;99577;-85
2021/12/22 18:22:29;;;;;;;48.63;23.13;;;;;;;-1.55;96.65;101551.23;3674347;78;99676;-86
2021/12/22 18:27:30;;;;;;;50.40;22.90;;;;;;;-1.58;96.70;101554.46;3675505;78;32881;-85
2021/12/22 18:32:32;;;;;;;47.77;21.30;;;;;;;-1.59;96.67;101549.36;3697245;78;98633;-86
2021/12/22 18:37:36;;;;;;;47.37;23.17;;;;;;;-1.64;96.72;101550.14;3684433;78;99506;-85
2021/12/22 18:42:36;;;;;;;49.57;22.67;;;;;;;-1.68;96.75;101538.29;3695417;77;99693;-85
2021/12/22 18:47:37;;;;;;;57.27;24.33;;;;;;;-1.73;96.78;101542.33;3617463;80;99303;-86
2021/12/22 18:52:38;;;;;;;51.83;24.43;;;;;;;-1.77;96.79;101537.72;3701238;78;99291;-85
2021/12/22 18:57:39;;;;;;;48.00;22.57;;;;;;;-1.82;96.85;101530.44;3706010;78;32473;-85
2021/12/22 19:02:42;;;;;;;49.60;23.57;;;;;;;-1.87;96.88;101526.38;3709368;77;99238;-85
2021/12/22 19:07:43;;;;;;;69.03;28.87;;;;;;;-1.93;96.96;101524.77;3730280;78;98999;-85
2021/12/22 19:12:44;;;;;;;54.60;29.17;;;;;;;-1.96;97.09;101521.80;3701334;77;99621;-84
2021/12/22 19:17:45;;;;;;;55.73;27.27;;;;;;;-2.02;97.16;101514.22;3705750;78;99184;-84
2021/12/22 19:22:46;;;;;;;55.13;26.20;;;;;;;-2.04;97.31;101504.25;3702492;77;99772;-84
2021/12/22 19:27:47;;;;;;;66.90;30.10;;;;;;;-2.08;97.33;101510.45;3674551;78;33394;-84
2021/12/22 19:32:49;;;;;;;71.17;29.03;;;;;;;-2.13;97.42;101505.05;3714277;78;99228;-84
2021/12/22 19:37:50;;;;;;;73.40;31.87;;;;;;;-2.18;97.54;101497.73;3689144;78;99532;-84
2021/12/22 19:42:52;;;;;;;82.90;31.67;;;;;;;-2.22;97.63;101492.63;3663718;78;99140;-83
2021/12/22 19:47:52;;;;;;;70.10;30.90;;;;;;;-2.25;97.70;101490.45;3700810;78;108735;-83
2021/12/22 19:52:56;;;;;;;66.17;30.30;;;;;;;-2.29;97.67;101494.75;3708787;77;99812;-84
2021/12/22 19:57:59;;;;;;;75.10;32.23;;;;;;;-2.32;97.71;101485.86;3672774;76;99072;-83
2021/12/22 20:03:03;;;;;;;63.87;30.90;;;;;;;-2.34;97.84;101485.33;3677000;79;25752;-84
2021/12/22 20:08:06;;;;;;;63.17;26.40;;;;;;;-2.37;97.87;101475.59;3674322;78;99479;-84
2021/12/22 20:13:08;;;;;;;65.03;30.77;;;;;;;-2.40;97.97;101474.80;3680045;78;99597;-84
2021/12/22 20:18:11;;;;;;;64.40;29.43;;;;;;;-2.44;98.02;101454.83;3636951;78;99509;-84
2021/12/22 20:23:12;;;;;;;68.03;32.67;;;;;;;-2.49;98.06;101471.81;3616430;80;99211;-83
2021/12/22 20:28:13;;;;;;;79.45;34.15;;;;;;;-2.53;98.13;101465.33;3680368;78;99185;-83
2021/12/22 20:33:17;;;;;;;79.03;36.03;;;;;;;-2.56;98.14;101465.05;3625608;80;33435;-83
2021/12/22 20:38:21;;;;;;;75.30;32.70;;;;;;;-2.61;98.32;101471.77;3591840;80;99147;-83
2021/12/22 20:43:27;;;;;;;85.10;38.10;;;;;;;-2.67;98.42;101462.05;3603379;80;99119;-83
2021/12/22 20:48:28;;;;;;;69.17;31.83;;;;;;;-2.71;98.42;101463.12;3608448;80;99242;-83
2021/12/22 20:53:29;;;;;;;74.37;34.77;;;;;;;-2.77;98.48;101469.57;3689700;78;99290;-83
2021/12/22 20:58:30;;;;;;;72.97;32.53;;;;;;;-2.80;98.69;101464.69;3632768;79;99148;-83
2021/12/22 21:03:31;;;;;;;92.70;38.13;;;;;;;-2.85;98.80;101459.28;3714612;78;32962;-83
2021/12/22 21:08:34;;;;;;;84.90;35.93;;;;;;;-2.89;98.78;101456.83;3691831;78;99389;-85
2021/12/22 21:13:38;;;;;;;78.83;33.27;;;;;;;-2.92;98.90;101452.52;3730201;76;98980;-82
2021/12/22 21:18:43;;;;;;;72.45;31.23;;;;;;;-2.96;98.90;101449.55;3652568;79;99952;-80
2021/12/22 21:23:44;;;;;;;71.97;30.95;;;;;;;-2.99;98.90;101448.73;3723967;77;99201;-83
2021/12/22 21:28:48;;;;;;;74.83;32.80;;;;;;;-3.02;98.98;101444.39;3707198;77;99141;-84
2021/12/22 21:33:49;;;;;;;72.43;31.47;;;;;;;-3.06;99.02;101438.72;3651777;79;25945;-82
2021/12/22 21:38:51;;;;;;;74.40;33.63;;;;;;;-3.09;99.02;101439.79;3601513;79;99454;-84
2021/12/22 21:43:52;;;;;;;73.17;30.20;;;;;;;-3.13;99.21;101427.92;3714094;77;99534;-83
2021/12/22 21:48:52;;;;;;;67.73;29.60;;;;;;;-3.18;99.27;101417.95;3675628;78;99910;-83
2021/12/22 21:53:53;;;;;;;73.23;31.63;;;;;;;-3.17;99.32;101430.33;3710522;78;99162;-84
2021/12/22 21:58:54;;;;;;;69.50;30.67;;;;;;;-3.22;99.25;101422.22;3706296;79;99198;-85
2021/12/22 22:03:59;;;;;;;81.87;33.45;;;;;;;-3.25;99.36;101414.69;3680318;79;99602;-84
2021/12/22 22:08:59;;;;;;;76.83;33.27;;;;;;;-3.27;99.48;101418.71;3688668;79;99174;-85
2021/12/22 22:14:00;;;;;;;73.83;33.70;;;;;;;-3.30;99.46;101417.36;3682529;78;99506;-85
2021/12/22 22:19:02;;;;;;;87.53;35.40;;;;;;;-3.32;99.52;101410.09;3679445;79;99767;-85
2021/12/22 22:24:05;;;;;;;77.83;31.97;;;;;;;-3.39;99.59;101393.90;3677646;78;99131;-85
2021/12/22 22:29:06;;;;;;;83.22;31.68;;;;;;;-3.37;99.52;101399.30;3661064;77;99241;-86
2021/12/22 22:34:08;;;;;;;84.97;33.10;;;;;;;-3.40;99.56;101386.34;3673401;79;99276;-86
2021/12/22 22:39:09;;;;;;;78.87;31.63;;;;;;;-3.43;99.40;101385.55;3676353;79;99145;-85
2021/12/22 22:44:10;;;;;;;75.60;30.40;;;;;;;-3.45;99.55;101374.77;3683306;79;99511;-85
2021/12/22 22:49:16;;;;;;;71.10;30.47;;;;;;;-3.47;99.51;101369.64;3690592;79;99657;-85
2021/12/22 22:54:19;;;;;;;55.30;21.10;;;;;;;-3.53;99.51;101357.77;3676106;77;99520;-85
2021/12/22 22:59:20;;;;;;;73.67;30.60;;;;;;;-3.56;99.59;101353.71;3598584;80;99549;-86
2021/12/22 23:04:21;;;;;;;74.77;29.55;;;;;;;-3.59;99.57;101351.56;3588535;80;99573;-85
2021/12/22 23:09:22;;;;;;;68.33;28.63;;;;;;;-3.63;99.62;101344.25;3591501;80;98886;-86
2021/12/22 23:14:22;;;;;;;73.23;28.17;;;;;;;-3.66;99.61;101338.07;3608222;80;99322;-86